createdAt,value
2019-02-25T00:04:46.392Z,9.5
2019-02-25T00:09:51.493Z,8.6
2019-02-25T00:14:56.925Z,8.2
2019-02-25T00:20:02.154Z,8.4
2019-02-25T00:25:07.467Z,8.9
2019-02-25T00:30:12.792Z,9.5
2019-02-25T00:35:17.905Z,9.1
2019-02-25T00:40:23.072Z,8.5
2019-02-25T00:45:30.496Z,8
2019-02-25T00:50:35.630Z,7.8
2019-02-25T00:55:41.097Z,7.1
2019-02-25T01:00:46.418Z,7
2019-02-25T01:05:51.543Z,7.7
2019-02-25T01:10:56.778Z,8.9
2019-02-25T01:16:02.568Z,8.2
2019-02-25T01:21:07.498Z,7.8
2019-02-25T01:26:13.233Z,7.3
2019-02-25T01:31:18.717Z,7.1
2019-02-25T01:36:24.206Z,7.4
2019-02-25T01:41:29.663Z,7.8
2019-02-25T01:46:33.659Z,6.9
2019-02-25T01:51:39.201Z,6.9
2019-02-25T01:56:44.492Z,6.9
2019-02-25T02:01:49.628Z,6.9
2019-02-25T02:06:55.583Z,7.5
2019-02-25T02:11:58.338Z,7.3
2019-02-25T02:17:03.897Z,6.5
2019-02-25T02:22:09.079Z,7.9
2019-02-25T02:27:14.606Z,7.2
2019-02-25T02:32:18.225Z,7.2
2019-02-25T02:37:22.047Z,7
2019-02-25T02:42:27.467Z,6.8
2019-02-25T02:47:32.832Z,7.2
2019-02-25T02:52:38.225Z,6.5
2019-02-25T02:57:43.354Z,6.7
2019-02-25T03:02:48.502Z,7.3
2019-02-25T03:07:54.099Z,7.6
2019-02-25T03:12:59.271Z,6.9
2019-02-25T03:18:03.370Z,5.9
2019-02-25T03:23:08.787Z,6
2019-02-25T03:28:14.237Z,6.4
2019-02-25T03:33:17.870Z,8.5
2019-02-25T03:38:23.719Z,7.6
2019-02-25T03:43:28.974Z,7
2019-02-25T03:48:32.773Z,8.6
2019-02-25T03:53:37.846Z,6.7
2019-02-25T03:58:42.881Z,5.9
2019-02-25T04:03:48.004Z,6.1
2019-02-25T04:08:53.192Z,6.4
2019-02-25T04:13:58.330Z,6.2
2019-02-25T04:19:04.061Z,5.6
2019-02-25T04:24:09.365Z,5.4
2019-02-25T04:29:14.686Z,5.8
2019-02-25T04:34:19.711Z,4.9
2019-02-25T04:39:25.041Z,5.9
2019-02-25T04:44:30.141Z,6.2
2019-02-25T04:49:34.080Z,6.6
2019-02-25T04:54:39.261Z,5.8
2019-02-25T04:59:44.507Z,5.4
2019-02-25T05:04:50.029Z,6.3
2019-02-25T05:09:55.223Z,5.5
2019-02-25T05:15:00.519Z,5.3
2019-02-25T05:20:06.909Z,7
2019-02-25T05:25:12.010Z,7.5
2019-02-25T05:30:17.257Z,10.1
2019-02-25T05:35:22.254Z,9.1
2019-02-25T05:40:27.334Z,18.6
2019-02-25T05:45:32.753Z,12
2019-02-25T05:50:38.469Z,15.6
2019-02-25T05:55:43.495Z,17.7
2019-02-25T06:00:48.623Z,24.3
2019-02-25T06:05:53.952Z,22.5
2019-02-25T06:10:59.663Z,22.9
2019-02-25T06:16:03.193Z,26.1
2019-02-25T06:21:08.537Z,19.5
2019-02-25T06:26:13.789Z,21.5
2019-02-25T06:31:19.273Z,20.5
2019-02-25T06:36:24.704Z,13.3
2019-02-25T06:41:28.393Z,14.5
2019-02-25T06:46:33.462Z,16.7
2019-02-25T06:51:38.861Z,18
2019-02-25T06:56:45.645Z,22
2019-02-25T07:01:45.754Z,19.2
2019-02-25T07:06:50.784Z,12.4
2019-02-25T07:11:55.961Z,15.8
2019-02-25T07:17:00.993Z,10.9
2019-02-25T07:22:06.411Z,38
2019-02-25T07:27:11.513Z,19.9
2019-02-25T07:32:16.672Z,22.4
2019-02-25T07:37:22.463Z,19.1
2019-02-25T07:42:28.006Z,15.1
2019-02-25T07:47:33.224Z,13.6
2019-02-25T07:52:38.443Z,13.7
2019-02-25T07:57:43.612Z,12.6
2019-02-25T08:02:49.422Z,12.5
2019-02-25T08:07:53.088Z,9.9
2019-02-25T08:12:58.418Z,9.6
2019-02-25T08:18:02.287Z,8.9
2019-02-25T08:23:07.676Z,10.8
2019-02-25T08:28:12.976Z,8.3
2019-02-25T08:33:18.377Z,9.2
2019-02-25T08:38:23.959Z,8.5
2019-02-25T08:43:29.185Z,14.2
2019-02-25T08:48:34.745Z,19.8
2019-02-25T08:53:40.881Z,12.1
2019-02-25T08:58:47.733Z,17.9
2019-02-25T09:03:52.333Z,9.3
2019-02-25T09:08:57.613Z,12.5
2019-02-25T09:14:00.334Z,11.3
2019-02-25T09:19:06.031Z,13.6
2019-02-25T09:24:11.319Z,10
2019-02-25T09:29:16.793Z,8.7
2019-02-25T09:34:20.485Z,7.7
2019-02-25T09:39:24.322Z,8.6
2019-02-25T09:44:29.419Z,7.2
2019-02-25T09:49:34.649Z,7.8
2019-02-25T09:54:39.975Z,13.5
2019-02-25T09:59:45.258Z,9.9
2019-02-25T10:04:50.644Z,6.4
2019-02-25T10:09:54.838Z,8.8
2019-02-25T10:15:00.293Z,8.3
2019-02-25T10:20:08.291Z,12.6
2019-02-25T10:25:13.623Z,9.7
2019-02-25T10:30:19.465Z,8.9
2019-02-25T10:35:24.943Z,8.3
2019-02-25T10:40:31.831Z,10.6
2019-02-25T10:45:38.822Z,13.1
2019-02-25T10:50:40.795Z,24.9
2019-02-25T10:55:47.108Z,21.6
2019-02-25T11:00:46.894Z,33
2019-02-25T11:05:53.853Z,24.5
2019-02-25T11:10:55.705Z,24.7
2019-02-25T11:16:00.836Z,24.1
2019-02-25T11:21:08.388Z,22.2
2019-02-25T11:26:15.296Z,24.1
2019-02-25T11:31:22.639Z,20
2019-02-25T11:36:24.635Z,20.4
2019-02-25T11:41:31.743Z,17.2
2019-02-25T11:46:34.805Z,21.1
2019-02-25T11:51:38.746Z,22.2
2019-02-25T11:56:43.995Z,20.1
2019-02-25T12:01:49.011Z,19
2019-02-25T12:06:54.402Z,19.2
2019-02-25T12:11:58.410Z,19.1
2019-02-25T12:17:05.598Z,18.4
2019-02-25T12:22:11.373Z,16.2
2019-02-25T12:27:16.385Z,15
2019-02-25T12:32:21.479Z,16.6
2019-02-25T12:37:27.264Z,16.2
2019-02-25T12:42:32.523Z,16.3
2019-02-25T12:47:37.905Z,16.6
2019-02-25T12:52:43.333Z,15.9
2019-02-25T12:57:49.920Z,15.1
2019-02-25T13:02:54.361Z,14.2
2019-02-25T13:07:59.648Z,14.5
2019-02-25T13:13:05.029Z,13
2019-02-25T13:18:10.893Z,13.5
2019-02-25T13:23:16.030Z,13.7
2019-02-25T13:28:26.649Z,12.4
2019-02-25T13:33:27.193Z,14.1
2019-02-25T13:38:33.046Z,14
2019-02-25T13:43:38.417Z,13.7
2019-02-25T13:48:44.762Z,12.9
2019-02-25T13:53:50.279Z,11.7
2019-02-25T13:58:56.486Z,14.9
2019-02-25T14:04:03.320Z,12.8
2019-02-25T14:09:08.722Z,11.9
2019-02-25T14:14:14.817Z,15
2019-02-25T14:19:20.977Z,13.6
2019-02-25T14:24:26.441Z,14.6
2019-02-25T14:29:32.933Z,14.8
2019-02-25T14:34:38.595Z,24.5
2019-02-25T14:39:49.132Z,33
2019-02-25T14:44:46.971Z,27.1
2019-02-25T14:49:53.536Z,32.9
2019-02-25T14:55:00.926Z,29.8
2019-02-25T15:00:06.715Z,27.1
2019-02-25T15:05:12.998Z,30.1
2019-02-25T15:10:14.781Z,28.2
2019-02-25T15:15:19.781Z,22
2019-02-25T15:20:28.665Z,22
2019-02-25T15:25:29.730Z,24.1
2019-02-25T15:30:30.677Z,23.1
2019-02-25T15:35:37.000Z,21.3
2019-02-25T15:40:37.848Z,19.8
2019-02-25T15:45:43.808Z,22.6
2019-02-25T15:50:50.652Z,20.2
2019-02-25T15:55:53.059Z,18.2
2019-02-25T16:00:56.615Z,18.9
2019-02-25T16:06:03.877Z,20.3
2019-02-25T16:11:04.952Z,21
2019-02-25T16:16:10.419Z,18.1
2019-02-25T16:21:16.555Z,19.8
2019-02-25T16:26:21.717Z,23.8
2019-02-25T16:31:28.511Z,34.9
2019-02-25T16:36:30.936Z,38.2
2019-02-25T16:41:39.189Z,30.7
2019-02-25T16:46:41.805Z,28.6
2019-02-25T16:51:44.524Z,26.5
2019-02-25T16:56:50.273Z,29.3
2019-02-25T17:01:57.984Z,22.9
2019-02-25T17:07:00.092Z,23.4
2019-02-25T17:12:06.755Z,26.6
2019-02-25T17:17:14.049Z,21.7
2019-02-25T17:22:19.481Z,21.8
2019-02-25T17:27:24.948Z,17.8
2019-02-25T17:32:30.506Z,15.7
2019-02-25T17:37:36.004Z,16.5
2019-02-25T17:42:47.042Z,15.7
2019-02-25T17:47:51.276Z,21.9
2019-02-25T17:52:54.005Z,20.6
2019-02-25T17:58:01.689Z,21.1
2019-02-25T18:03:07.949Z,18.4
2019-02-25T18:08:13.082Z,18.3
2019-02-25T18:13:21.903Z,19.7
2019-02-25T18:18:26.818Z,13.7
2019-02-25T18:23:34.399Z,16.8
2019-02-25T18:28:43.463Z,18.5
2019-02-25T18:33:46.171Z,15.1
2019-02-25T18:38:46.359Z,14.8
2019-02-25T18:43:47.219Z,17.3
2019-02-25T18:48:48.722Z,16.5
2019-02-25T18:53:57.455Z,19.1
2019-02-25T18:59:07.561Z,16.8
2019-02-25T19:04:03.257Z,19.1
2019-02-25T19:09:07.353Z,16.2
2019-02-25T19:14:15.317Z,15.3
2019-02-25T19:19:23.480Z,19.2
2019-02-25T19:24:29.432Z,48.1
2019-02-25T19:29:35.691Z,25.8
2019-02-25T19:34:42.332Z,12.2
2019-02-25T19:39:50.406Z,8.6
2019-02-25T19:44:58.060Z,8.3
2019-02-25T19:50:05.034Z,11.3
2019-02-25T19:55:06.107Z,5.2
2019-02-25T20:00:08.803Z,4.6
2019-02-25T20:05:14.703Z,3.8
2019-02-25T20:10:18.574Z,4
2019-02-25T20:15:25.004Z,5.6
2019-02-25T20:20:31.906Z,5.5
2019-02-25T20:25:36.164Z,2.6
2019-02-25T20:30:46.791Z,2.6
2019-02-25T20:35:51.004Z,1.9
2019-02-25T20:40:57.395Z,1.7
2019-02-25T20:46:06.111Z,1.5
2019-02-25T20:51:13.471Z,2
2019-02-25T20:56:18.996Z,1.2
2019-02-25T21:01:20.831Z,1.5
2019-02-25T21:06:24.744Z,1.4
2019-02-25T21:11:28.605Z,1.1
2019-02-25T21:16:34.667Z,1
2019-02-25T21:21:39.913Z,0.9
2019-02-25T21:26:45.255Z,1.1
2019-02-25T21:31:49.572Z,3.6
2019-02-25T21:36:54.122Z,5.8
2019-02-25T21:41:56.208Z,4.9
2019-02-25T21:47:03.628Z,5.7
2019-02-25T21:52:13.048Z,4.7
2019-02-25T21:57:11.505Z,4.7
2019-02-25T22:02:19.448Z,4.9
2019-02-25T22:07:26.754Z,4.6
2019-02-25T22:12:29.317Z,5.4
2019-02-25T22:17:31.689Z,6.5
2019-02-25T22:22:37.506Z,6.2
2019-02-25T22:27:43.711Z,5.4
2019-02-25T22:32:50.678Z,11.8
2019-02-25T22:37:57.967Z,12.3
2019-02-25T22:42:58.888Z,13
2019-02-25T22:48:04.548Z,12.4
2019-02-25T22:53:11.240Z,11.8
2019-02-25T22:58:17.340Z,11.2
2019-02-25T23:03:24.609Z,13.3
2019-02-25T23:08:32.358Z,13.1
2019-02-25T23:13:36.239Z,12.5
2019-02-25T23:18:42.602Z,13.1
2019-02-25T23:23:51.187Z,12.6
2019-02-25T23:28:57.668Z,12.2
2019-02-25T23:34:05.590Z,18.4
2019-02-25T23:39:11.490Z,16.6
2019-02-25T23:44:22.167Z,13.3
2019-02-25T23:49:29.482Z,13.2
2019-02-25T23:54:34.690Z,17.2
2019-02-25T23:59:40.924Z,12.6
